<?xml version="1.0" encoding="UTF-8" standalone="no" ?>
<gpx xmlns="http://www.topografix.com/GPX/1/1" xmlns:xsi="http://www.w3.org/2001/XMLSchema-instance" xsi:schemaLocation="http://www.topografix.com/GPX/1/1 http://www.topografix.com/GPX/1/1/gpx.xsd" version="1.1" creator="VisuGPX - https://www.visugpx.com">
  <metadata>
    <name>05 - Onesse - Lesperon</name>
    <desc><![CDATA[Voie de Tours - Onesse - Lesperon]]></desc>
  </metadata>
  <trk>
    <name><![CDATA[05 - Onesse - Lesperon]]></name>
    <trkseg>
      <trkpt lat="44.06146" lon="-1.06956">
        <ele>42</ele>
        <time>2019-01-06T14:27:13Z</time>
      </trkpt>
      <trkpt lat="44.05834" lon="-1.07083">
        <ele>49</ele>
        <time>2019-01-06T14:28:13Z</time>
      </trkpt>
      <trkpt lat="44.05509" lon="-1.0717">
        <ele>45</ele>
        <time>2019-01-06T14:29:13Z</time>
      </trkpt>
      <trkpt lat="44.05381" lon="-1.07241">
        <ele>38</ele>
        <time>2019-01-06T14:30:13Z</time>
      </trkpt>
      <trkpt lat="44.05328" lon="-1.07254">
        <ele>41</ele>
        <time>2019-01-06T14:31:13Z</time>
      </trkpt>
      <trkpt lat="44.05227" lon="-1.07185">
        <ele>52</ele>
        <time>2019-01-06T14:32:13Z</time>
      </trkpt>
      <trkpt lat="44.05052" lon="-1.07185">
        <ele>59</ele>
        <time>2019-01-06T14:33:13Z</time>
      </trkpt>
      <trkpt lat="44.04969" lon="-1.07065">
        <ele>57</ele>
        <time>2019-01-06T14:34:13Z</time>
      </trkpt>
      <trkpt lat="44.04725" lon="-1.06941">
        <ele>58</ele>
        <time>2019-01-06T14:35:13Z</time>
      </trkpt>
      <trkpt lat="44.04466" lon="-1.0673">
        <ele>55</ele>
        <time>2019-01-06T14:36:13Z</time>
      </trkpt>
      <trkpt lat="44.04133" lon="-1.06499">
        <ele>57</ele>
        <time>2019-01-06T14:37:13Z</time>
      </trkpt>
      <trkpt lat="44.04043" lon="-1.06353">
        <ele>60</ele>
        <time>2019-01-06T14:38:13Z</time>
      </trkpt>
      <trkpt lat="44.03945" lon="-1.064">
        <ele>66</ele>
        <time>2019-01-06T14:39:13Z</time>
      </trkpt>
      <trkpt lat="44.035" lon="-1.06344">
        <ele>69</ele>
        <time>2019-01-06T14:40:13Z</time>
      </trkpt>
      <trkpt lat="44.03075" lon="-1.06211">
        <ele>64</ele>
        <time>2019-01-06T14:41:13Z</time>
      </trkpt>
      <trkpt lat="44.02939" lon="-1.0607">
        <ele>65</ele>
        <time>2019-01-06T14:42:13Z</time>
      </trkpt>
      <trkpt lat="44.02701" lon="-1.05894">
        <ele>77</ele>
        <time>2019-01-06T14:43:13Z</time>
      </trkpt>
      <trkpt lat="44.02501" lon="-1.05834">
        <ele>75</ele>
        <time>2019-01-06T14:44:13Z</time>
      </trkpt>
      <trkpt lat="44.026" lon="-1.06417">
        <ele>80</ele>
        <time>2019-01-06T14:45:13Z</time>
      </trkpt>
      <trkpt lat="44.02572" lon="-1.07009">
        <ele>74</ele>
        <time>2019-01-06T14:46:13Z</time>
      </trkpt>
      <trkpt lat="44.02511" lon="-1.07228">
        <ele>67</ele>
        <time>2019-01-06T14:47:13Z</time>
      </trkpt>
      <trkpt lat="44.0187" lon="-1.07172">
        <ele>78</ele>
        <time>2019-01-06T14:48:13Z</time>
      </trkpt>
      <trkpt lat="44.01382" lon="-1.07022">
        <ele>83</ele>
        <time>2019-01-06T14:49:13Z</time>
      </trkpt>
      <trkpt lat="44.01314" lon="-1.07035">
        <ele>85</ele>
        <time>2019-01-06T14:50:13Z</time>
      </trkpt>
      <trkpt lat="44.01178" lon="-1.07404">
        <ele>65</ele>
        <time>2019-01-06T14:51:13Z</time>
      </trkpt>
      <trkpt lat="44.01036" lon="-1.07267">
        <ele>67</ele>
        <time>2019-01-06T14:52:13Z</time>
      </trkpt>
      <trkpt lat="44.00984" lon="-1.07417">
        <ele>75</ele>
        <time>2019-01-06T14:53:13Z</time>
      </trkpt>
      <trkpt lat="44.00814" lon="-1.07069">
        <ele>75</ele>
        <time>2019-01-06T14:54:13Z</time>
      </trkpt>
      <trkpt lat="44.00641" lon="-1.06906">
        <ele>76</ele>
        <time>2019-01-06T14:55:13Z</time>
      </trkpt>
      <trkpt lat="44.00598" lon="-1.06989">
        <ele>74</ele>
        <time>2019-01-06T14:56:13Z</time>
      </trkpt>
      <trkpt lat="44.00485" lon="-1.07083">
        <ele>78</ele>
        <time>2019-01-06T14:57:13Z</time>
      </trkpt>
      <trkpt lat="44.0026" lon="-1.07122">
        <ele>83</ele>
        <time>2019-01-06T14:58:13Z</time>
      </trkpt>
      <trkpt lat="43.99934" lon="-1.07344">
        <ele>78</ele>
        <time>2019-01-06T14:59:13Z</time>
      </trkpt>
      <trkpt lat="43.99617" lon="-1.07566">
        <ele>84</ele>
        <time>2019-01-06T15:00:13Z</time>
      </trkpt>
      <trkpt lat="43.99403" lon="-1.07691">
        <ele>88</ele>
        <time>2019-01-06T15:01:13Z</time>
      </trkpt>
      <trkpt lat="43.99102" lon="-1.07826">
        <ele>92</ele>
        <time>2019-01-06T15:02:13Z</time>
      </trkpt>
      <trkpt lat="43.98955" lon="-1.07891">
        <ele>89</ele>
        <time>2019-01-06T15:03:13Z</time>
      </trkpt>
      <trkpt lat="43.98912" lon="-1.07898">
        <ele>88</ele>
        <time>2019-01-06T15:04:13Z</time>
      </trkpt>
      <trkpt lat="43.98801" lon="-1.07967">
        <ele>88</ele>
        <time>2019-01-06T15:05:13Z</time>
      </trkpt>
      <trkpt lat="43.98662" lon="-1.08015">
        <ele>83</ele>
        <time>2019-01-06T15:06:13Z</time>
      </trkpt>
      <trkpt lat="43.98619" lon="-1.08176">
        <ele>79</ele>
        <time>2019-01-06T15:07:13Z</time>
      </trkpt>
      <trkpt lat="43.98569" lon="-1.08317">
        <ele>77</ele>
        <time>2019-01-06T15:08:13Z</time>
      </trkpt>
      <trkpt lat="43.98573" lon="-1.08403">
        <ele>77</ele>
        <time>2019-01-06T15:09:13Z</time>
      </trkpt>
      <trkpt lat="43.98558" lon="-1.08586">
        <ele>82</ele>
        <time>2019-01-06T15:10:13Z</time>
      </trkpt>
      <trkpt lat="43.98495" lon="-1.08717">
        <ele>83</ele>
        <time>2019-01-06T15:11:13Z</time>
      </trkpt>
      <trkpt lat="43.98494" lon="-1.08782">
        <ele>85</ele>
        <time>2019-01-06T15:12:13Z</time>
      </trkpt>
      <trkpt lat="43.98095" lon="-1.08882">
        <ele>83</ele>
        <time>2019-01-06T15:13:13Z</time>
      </trkpt>
      <trkpt lat="43.98009" lon="-1.08919">
        <ele>79</ele>
        <time>2019-01-06T15:14:13Z</time>
      </trkpt>
      <trkpt lat="43.9792" lon="-1.08967">
        <ele>83</ele>
        <time>2019-01-06T15:15:13Z</time>
      </trkpt>
      <trkpt lat="43.97689" lon="-1.09099">
        <ele>81</ele>
        <time>2019-01-06T15:16:13Z</time>
      </trkpt>
      <trkpt lat="43.97586" lon="-1.09133">
        <ele>87</ele>
        <time>2019-01-06T15:17:13Z</time>
      </trkpt>
      <trkpt lat="43.97484" lon="-1.09142">
        <ele>86</ele>
        <time>2019-01-06T15:18:13Z</time>
      </trkpt>
      <trkpt lat="43.97292" lon="-1.09177">
        <ele>83</ele>
        <time>2019-01-06T15:19:13Z</time>
      </trkpt>
      <trkpt lat="43.97042" lon="-1.09176">
        <ele>76</ele>
        <time>2019-01-06T15:20:13Z</time>
      </trkpt>
      <trkpt lat="43.96954" lon="-1.09377">
        <ele>72</ele>
        <time>2019-01-06T15:21:13Z</time>
      </trkpt>
    </trkseg>
  </trk>
</gpx>